Time;durP1;ratioP1;P1;durP2;ratioP2;P2;SDS_P1;SDS_P2;PMS_P1;PMS_P2;Temp;Humidity;BMP_temperature;BMP_pressure;BME280_temperature;BME280_humidity;BME280_pressure;Samples;Min_cycle;Max_cycle;Signal;HPM_P1;HPM_P2
2023/07/08 00:00:09;;;;;;;17.45;5.07;;;;;;;;;;5001176;28;20029;-70
2023/07/08 00:02:35;;;;;;;17.73;4.75;;;;;;;;;;5011359;28;20470;-70
2023/07/08 00:05:01;;;;;;;23.45;5.68;;;;;;;;;;4979288;28;20269;-69
2023/07/08 00:07:27;;;;;;;19.25;5.40;;;;;;;;;;4984496;28;20033;-70
2023/07/08 00:09:54;;;;;;;18.58;5.38;;;;;;;;;;5009438;28;20033;-70
2023/07/08 00:12:20;;;;;;;21.23;5.63;;;;;;;;;;5013956;28;20029;-70
2023/07/08 00:14:47;;;;;;;21.38;5.47;;;;;;;;;;5006354;28;20040;-69
2023/07/08 00:17:13;;;;;;;17.25;5.05;;;;;;;;;;5009956;28;20099;-70
2023/07/08 00:19:40;;;;;;;18.80;5.20;;;;;;;;;;5010673;28;20061;-70
2023/07/08 00:22:13;;;;;;;19.48;4.90;;;;;;;;;;5014068;28;20373;-70
2023/07/08 00:24:40;;;;;;;15.52;5.25;;;;;;;;;;5009353;28;20060;-70
2023/07/08 00:27:08;;;;;;;15.43;4.38;;;;;;;;;;5006420;28;20140;-70
2023/07/08 00:29:35;;;;;;;17.10;4.40;;;;;;;;;;5008206;28;20018;-70
2023/07/08 00:32:01;;;;;;;16.00;5.28;;;;;;;;;;5009030;28;20475;-70
2023/07/08 00:34:27;;;;;;;18.20;5.70;;;;;;;;;;5009808;28;20971;-69
2023/07/08 00:36:53;;;;;;;19.00;5.68;;;;;;;;;;5012883;28;20037;-70
2023/07/08 00:39:19;;;;;;;15.43;5.20;;;;;;;;;;5012069;28;20095;-69
2023/07/08 00:41:46;;;;;;;14.82;4.90;;;;;;;;;;4984363;28;20058;-71
2023/07/08 00:44:12;;;;;;;15.60;4.80;;;;;;;;;;4968558;28;20025;-71
2023/07/08 00:46:44;;;;;;;18.25;5.20;;;;;;;;;;4968870;28;20083;-71
2023/07/08 00:49:16;;;;;;;13.15;4.25;;;;;;;;;;4969545;28;20629;-70
2023/07/08 00:51:43;;;;;;;13.63;4.05;;;;;;;;;;4970944;28;20033;-70
2023/07/08 00:54:13;;;;;;;14.77;4.45;;;;;;;;;;4969103;28;20124;-71
2023/07/08 00:56:43;;;;;;;14.68;4.50;;;;;;;;;;4971060;28;20374;-71
2023/07/08 00:59:20;;;;;;;14.20;4.70;;;;;;;;;;4967472;28;20368;-71
2023/07/08 01:01:47;;;;;;;14.23;4.38;;;;;;;;;;4969152;28;20033;-71
2023/07/08 01:04:15;;;;;;;15.23;4.32;;;;;;;;;;4969144;28;20036;-71
2023/07/08 01:06:43;;;;;;;14.10;4.72;;;;;;;;;;4971432;28;20083;-71
2023/07/08 01:09:11;;;;;;;16.02;4.57;;;;;;;;;;4968420;28;20701;-70
2023/07/08 01:11:38;;;;;;;15.82;4.93;;;;;;;;;;4967841;28;20308;-71
2023/07/08 01:14:05;;;;;;;18.13;5.38;;;;;;;;;;4966756;28;20803;-70
2023/07/08 01:16:33;;;;;;;14.60;4.85;;;;;;;;;;4971570;28;20061;-71
2023/07/08 01:19:00;;;;;;;16.52;4.97;;;;;;;;;;4987546;28;20029;-70
2023/07/08 01:21:37;;;;;;;15.38;5.10;;;;;;;;;;5006506;28;20064;-70
2023/07/08 01:24:05;;;;;;;14.90;5.20;;;;;;;;;;5001747;28;20045;-70
2023/07/08 01:26:32;;;;;;;18.25;5.50;;;;;;;;;;5009119;28;20131;-69
2023/07/08 01:28:58;;;;;;;19.65;5.47;;;;;;;;;;5003183;28;20033;-70
2023/07/08 01:31:24;;;;;;;15.57;4.65;;;;;;;;;;5009709;28;20567;-70
2023/07/08 01:33:52;;;;;;;17.67;4.82;;;;;;;;;;5009693;28;20585;-70
2023/07/08 01:36:18;;;;;;;20.30;5.53;;;;;;;;;;5006534;28;20261;-70
2023/07/08 01:38:45;;;;;;;16.27;4.72;;;;;;;;;;5010212;28;20087;-70
2023/07/08 01:41:12;;;;;;;17.00;4.95;;;;;;;;;;5011594;28;20144;-69
2023/07/08 01:43:39;;;;;;;15.45;5.03;;;;;;;;;;5005999;28;20053;-71
2023/07/08 01:46:12;;;;;;;13.05;4.28;;;;;;;;;;5003680;28;20034;-69
2023/07/08 01:48:40;;;;;;;18.00;5.05;;;;;;;;;;5006129;28;20024;-70
2023/07/08 01:51:07;;;;;;;12.98;4.57;;;;;;;;;;5010638;28;20443;-70
2023/07/08 01:53:35;;;;;;;15.27;4.80;;;;;;;;;;5008662;28;20108;-70
2023/07/08 01:56:01;;;;;;;17.33;5.03;;;;;;;;;;4990958;28;20452;-70
2023/07/08 01:58:27;;;;;;;14.65;4.28;;;;;;;;;;4992829;28;20116;-70
2023/07/08 02:00:54;;;;;;;15.25;4.63;;;;;;;;;;4993573;28;20033;-70
2023/07/08 02:03:21;;;;;;;13.98;4.35;;;;;;;;;;4990780;28;20418;-69
2023/07/08 02:05:47;;;;;;;14.88;4.03;;;;;;;;;;4997901;28;20045;-70
2023/07/08 02:08:13;;;;;;;14.55;4.32;;;;;;;;;;4993733;28;20022;-70
2023/07/08 02:10:40;;;;;;;14.63;4.65;;;;;;;;;;4996209;28;20033;-70
2023/07/08 02:13:06;;;;;;;18.98;5.25;;;;;;;;;;4989448;28;20049;-69
2023/07/08 02:15:33;;;;;;;11.75;4.20;;;;;;;;;;4994675;28;20045;-69
2023/07/08 02:17:59;;;;;;;12.13;4.30;;;;;;;;;;4992547;28;20493;-69
2023/07/08 02:20:25;;;;;;;14.73;4.68;;;;;;;;;;4989399;28;20148;-70
2023/07/08 02:22:51;;;;;;;14.52;4.28;;;;;;;;;;4996283;28;20388;-69
2023/07/08 02:25:17;;;;;;;16.92;4.78;;;;;;;;;;4992690;28;20428;-69
2023/07/08 02:27:44;;;;;;;15.52;3.97;;;;;;;;;;4993961;28;20486;-69
2023/07/08 02:30:10;;;;;;;13.13;3.90;;;;;;;;;;4989909;28;20319;-70
2023/07/08 02:32:38;;;;;;;17.92;4.60;;;;;;;;;;5002236;28;20025;-69
2023/07/08 02:35:05;;;;;;;17.05;4.55;;;;;;;;;;5011929;28;20504;-70
2023/07/08 02:37:32;;;;;;;11.68;4.20;;;;;;;;;;5004916;28;20037;-69
2023/07/08 02:39:58;;;;;;;12.68;4.38;;;;;;;;;;5006705;28;20081;-69
2023/07/08 02:42:25;;;;;;;17.25;4.85;;;;;;;;;;5004593;28;20037;-68
2023/07/08 02:44:51;;;;;;;16.65;4.68;;;;;;;;;;5005810;28;20115;-69
2023/07/08 02:47:17;;;;;;;13.48;4.93;;;;;;;;;;4999021;28;20307;-69
2023/07/08 02:49:43;;;;;;;18.25;5.05;;;;;;;;;;5019830;28;20037;-69
2023/07/08 02:52:09;;;;;;;16.48;5.63;;;;;;;;;;5007771;28;20052;-69
2023/07/08 02:54:36;;;;;;;14.60;5.10;;;;;;;;;;5003549;28;20488;-71
2023/07/08 02:57:02;;;;;;;20.40;6.05;;;;;;;;;;5006088;28;20029;-72
2023/07/08 02:59:28;;;;;;;17.10;5.72;;;;;;;;;;5007361;28;20524;-70
2023/07/08 03:01:55;;;;;;;17.02;5.72;;;;;;;;;;5009906;28;20111;-70
2023/07/08 03:04:21;;;;;;;16.85;5.82;;;;;;;;;;5006397;28;20037;-69
2023/07/08 03:06:48;;;;;;;15.70;5.63;;;;;;;;;;5006576;28;20065;-70
2023/07/08 03:09:14;;;;;;;17.25;5.82;;;;;;;;;;5000319;28;20030;-70
2023/07/08 03:11:40;;;;;;;13.35;4.65;;;;;;;;;;5000123;28;20026;-70
2023/07/08 03:14:07;;;;;;;15.77;4.80;;;;;;;;;;5005393;28;20089;-70
2023/07/08 03:16:33;;;;;;;15.70;5.10;;;;;;;;;;5002778;28;20491;-69
2023/07/08 03:18:59;;;;;;;20.98;5.50;;;;;;;;;;4999889;28;20056;-70
2023/07/08 03:21:25;;;;;;;13.45;4.93;;;;;;;;;;5005195;28;20056;-70
2023/07/08 03:23:52;;;;;;;17.08;5.30;;;;;;;;;;5002554;28;20454;-70
2023/07/08 03:26:22;;;;;;;18.40;5.03;;;;;;;;;;5005009;28;20021;-70
2023/07/08 03:28:49;;;;;;;14.32;4.35;;;;;;;;;;5008103;28;20034;-70
2023/07/08 03:31:15;;;;;;;15.95;4.72;;;;;;;;;;4995923;28;20033;-70
2023/07/08 03:33:41;;;;;;;18.83;5.30;;;;;;;;;;4999577;28;20022;-70
2023/07/08 03:36:26;;;;;;;20.08;5.55;;;;;;;;;;5004468;28;20475;-70
2023/07/08 03:38:55;;;;;;;18.38;5.20;;;;;;;;;;5008272;28;20156;-69
2023/07/08 03:41:21;;;;;;;16.90;5.40;;;;;;;;;;4998337;28;20115;-70
2023/07/08 03:43:47;;;;;;;18.85;6.10;;;;;;;;;;5010361;28;20040;-70
2023/07/08 03:46:15;;;;;;;17.23;5.93;;;;;;;;;;5003401;28;20034;-70
2023/07/08 03:48:41;;;;;;;13.00;4.50;;;;;;;;;;5004189;28;20079;-70
2023/07/08 03:51:10;;;;;;;19.00;5.97;;;;;;;;;;4999846;28;20038;-69
2023/07/08 03:53:36;;;;;;;15.98;5.20;;;;;;;;;;5007777;28;20029;-69
2023/07/08 03:56:02;;;;;;;17.52;5.20;;;;;;;;;;5000626;28;20448;-70
2023/07/08 03:58:29;;;;;;;17.02;4.82;;;;;;;;;;5002676;28;20026;-70
2023/07/08 04:00:55;;;;;;;14.60;4.68;;;;;;;;;;5005273;28;20033;-70
2023/07/08 04:03:21;;;;;;;19.33;5.25;;;;;;;;;;5005171;28;20042;-69
2023/07/08 04:05:47;;;;;;;16.77;5.13;;;;;;;;;;5005586;28;20041;-69
2023/07/08 04:08:13;;;;;;;16.30;4.82;;;;;;;;;;5001983;28;20080;-70
2023/07/08 04:10:39;;;;;;;15.82;4.65;;;;;;;;;;5007753;28;20595;-70
2023/07/08 04:13:06;;;;;;;18.27;5.13;;;;;;;;;;4999798;28;20038;-69
2023/07/08 04:15:32;;;;;;;19.55;5.40;;;;;;;;;;5001706;28;20072;-69
2023/07/08 04:17:58;;;;;;;17.55;5.32;;;;;;;;;;4999302;28;20029;-70
2023/07/08 04:20:24;;;;;;;21.77;5.55;;;;;;;;;;5005441;28;20041;-70
2023/07/08 04:22:50;;;;;;;18.83;5.68;;;;;;;;;;5007614;28;20033;-70
2023/07/08 04:25:18;;;;;;;24.70;6.45;;;;;;;;;;5002472;28;20593;-70
2023/07/08 04:27:45;;;;;;;23.38;6.43;;;;;;;;;;5005366;28;20584;-70
2023/07/08 04:30:29;;;;;;;22.30;6.70;;;;;;;;;;5001814;28;20320;-70
2023/07/08 04:32:55;;;;;;;22.13;5.90;;;;;;;;;;5005979;28;20031;-71
2023/07/08 04:35:22;;;;;;;19.80;6.60;;;;;;;;;;5007037;28;20037;-69
2023/07/08 04:37:48;;;;;;;18.83;5.72;;;;;;;;;;5007024;28;20304;-70
2023/07/08 04:40:18;;;;;;;16.00;5.07;;;;;;;;;;4999478;28;20396;-71
2023/07/08 04:42:47;;;;;;;14.90;5.28;;;;;;;;;;5007809;28;20322;-70
2023/07/08 04:45:14;;;;;;;16.52;4.30;;;;;;;;;;5001189;28;20057;-70
2023/07/08 04:47:40;;;;;;;16.27;5.07;;;;;;;;;;5004008;28;20476;-71
2023/07/08 04:50:06;;;;;;;16.55;5.05;;;;;;;;;;5000547;28;20041;-71
2023/07/08 04:52:32;;;;;;;12.63;3.97;;;;;;;;;;5008774;28;20586;-71
2023/07/08 04:54:58;;;;;;;17.48;5.20;;;;;;;;;;5003395;28;20069;-70
2023/07/08 04:57:25;;;;;;;12.38;4.00;;;;;;;;;;5006092;28;20517;-70
2023/07/08 04:59:51;;;;;;;15.25;4.53;;;;;;;;;;5004431;28;20456;-71
2023/07/08 05:02:17;;;;;;;19.73;5.55;;;;;;;;;;5000894;28;20516;-71
2023/07/08 05:04:43;;;;;;;17.83;4.72;;;;;;;;;;5002513;28;20179;-70
2023/07/08 05:07:09;;;;;;;19.83;5.82;;;;;;;;;;5004292;28;20029;-69
2023/07/08 05:09:36;;;;;;;17.08;4.93;;;;;;;;;;5003196;28;20188;-71
2023/07/08 05:12:02;;;;;;;18.05;4.80;;;;;;;;;;5002268;28;20057;-71
2023/07/08 05:14:28;;;;;;;14.90;4.20;;;;;;;;;;5005362;28;20456;-71
2023/07/08 05:16:55;;;;;;;12.48;3.97;;;;;;;;;;5003797;28;20064;-70
2023/07/08 05:19:23;;;;;;;15.02;4.80;;;;;;;;;;5005768;28;20587;-70
2023/07/08 05:21:49;;;;;;;15.38;4.53;;;;;;;;;;5008415;28;20322;-70
2023/07/08 05:24:16;;;;;;;14.45;4.60;;;;;;;;;;5005326;28;20495;-71
2023/07/08 05:26:42;;;;;;;14.48;4.82;;;;;;;;;;5005847;28;20427;-70
2023/07/08 05:29:08;;;;;;;15.65;4.55;;;;;;;;;;5001014;28;20088;-71
2023/07/08 05:31:34;;;;;;;17.80;5.47;;;;;;;;;;5007270;28;20032;-71
2023/07/08 05:34:00;;;;;;;18.58;5.00;;;;;;;;;;5003793;28;20034;-70
2023/07/08 05:36:26;;;;;;;17.88;5.18;;;;;;;;;;5010233;28;20106;-71
2023/07/08 05:38:52;;;;;;;16.40;5.07;;;;;;;;;;5009320;28;20139;-70
2023/07/08 05:41:19;;;;;;;18.50;5.68;;;;;;;;;;5002788;28;20049;-71
2023/07/08 05:43:45;;;;;;;20.63;5.57;;;;;;;;;;5001458;28;20037;-70
2023/07/08 05:46:11;;;;;;;23.42;6.18;;;;;;;;;;5000089;28;20025;-70
2023/07/08 05:48:37;;;;;;;21.90;6.10;;;;;;;;;;5004145;28;20339;-71
2023/07/08 05:51:03;;;;;;;15.38;5.20;;;;;;;;;;5000797;28;20026;-70
2023/07/08 05:53:29;;;;;;;21.65;6.22;;;;;;;;;;5005925;28;20041;-70
2023/07/08 05:55:56;;;;;;;19.63;5.53;;;;;;;;;;5005522;28;20181;-71
2023/07/08 05:58:22;;;;;;;20.02;6.95;;;;;;;;;;5006803;28;20452;-70
2023/07/08 06:00:55;;;;;;;18.15;5.93;;;;;;;;;;5007017;28;20510;-70
2023/07/08 06:03:21;;;;;;;17.52;6.00;;;;;;;;;;5007256;28;20597;-70
2023/07/08 06:05:49;;;;;;;17.13;5.68;;;;;;;;;;5007186;28;20043;-70
2023/07/08 06:08:15;;;;;;;21.40;5.47;;;;;;;;;;5001352;28;20481;-70
2023/07/08 06:10:42;;;;;;;18.17;5.50;;;;;;;;;;5007211;28;20672;-71
2023/07/08 06:13:08;;;;;;;16.15;4.88;;;;;;;;;;5001881;28;20080;-71
2023/07/08 06:15:35;;;;;;;24.15;5.90;;;;;;;;;;5006121;28;20029;-71
2023/07/08 06:18:02;;;;;;;18.65;5.35;;;;;;;;;;5001239;28;20364;-71
2023/07/08 06:20:28;;;;;;;18.17;5.22;;;;;;;;;;5008383;28;20076;-71
2023/07/08 06:22:55;;;;;;;17.60;5.18;;;;;;;;;;5007455;28;20044;-70
2023/07/08 06:25:21;;;;;;;16.75;5.03;;;;;;;;;;5017789;28;20030;-70
2023/07/08 06:27:47;;;;;;;18.25;5.60;;;;;;;;;;5004716;28;20390;-70
2023/07/08 06:30:13;;;;;;;16.73;4.93;;;;;;;;;;5006489;28;20025;-70
2023/07/08 06:32:40;;;;;;;16.35;4.63;;;;;;;;;;5008158;28;20271;-70
2023/07/08 06:35:06;;;;;;;15.70;4.70;;;;;;;;;;5006393;28;20339;-70
2023/07/08 06:37:32;;;;;;;16.63;4.97;;;;;;;;;;5009706;28;20017;-70
2023/07/08 06:39:58;;;;;;;15.80;5.13;;;;;;;;;;5002505;28;20053;-70
2023/07/08 06:42:24;;;;;;;22.83;5.50;;;;;;;;;;5007575;28;20044;-70
2023/07/08 06:44:50;;;;;;;17.27;5.28;;;;;;;;;;5008415;28;20049;-69
2023/07/08 06:47:20;;;;;;;17.73;4.80;;;;;;;;;;5003823;28;20105;-70
2023/07/08 06:49:47;;;;;;;15.15;4.50;;;;;;;;;;5006677;28;20472;-70
2023/07/08 06:52:14;;;;;;;15.23;5.07;;;;;;;;;;5005018;28;20111;-70
2023/07/08 06:54:40;;;;;;;19.77;5.45;;;;;;;;;;5015088;28;20033;-70
2023/07/08 06:57:06;;;;;;;18.88;5.72;;;;;;;;;;5005116;28;20116;-70
2023/07/08 06:59:33;;;;;;;19.83;6.00;;;;;;;;;;5005164;28;20033;-70
2023/07/08 07:01:59;;;;;;;17.10;5.50;;;;;;;;;;5010653;28;20406;-69
2023/07/08 07:04:25;;;;;;;16.73;5.25;;;;;;;;;;5010262;28;20034;-70
2023/07/08 07:06:51;;;;;;;17.23;5.55;;;;;;;;;;5010785;28;20068;-69
2023/07/08 07:09:18;;;;;;;19.67;5.47;;;;;;;;;;5000313;28;20168;-68
2023/07/08 07:11:44;;;;;;;17.92;5.60;;;;;;;;;;5010486;28;20029;-69
2023/07/08 07:14:10;;;;;;;15.48;5.50;;;;;;;;;;5003875;28;20029;-68
2023/07/08 07:16:36;;;;;;;22.00;5.38;;;;;;;;;;5009197;28;20148;-69
2023/07/08 07:19:02;;;;;;;19.52;5.78;;;;;;;;;;5009859;28;20056;-69
2023/07/08 07:21:29;;;;;;;23.88;6.30;;;;;;;;;;5005364;28;20033;-70
2023/07/08 07:23:55;;;;;;;20.23;5.85;;;;;;;;;;5007103;28;20030;-69
2023/07/08 07:26:21;;;;;;;18.63;5.53;;;;;;;;;;5008594;28;20681;-70
2023/07/08 07:28:47;;;;;;;18.83;5.30;;;;;;;;;;5006848;28;20040;-69
2023/07/08 07:31:13;;;;;;;20.25;5.78;;;;;;;;;;5007902;28;20104;-69
2023/07/08 07:33:39;;;;;;;18.10;5.30;;;;;;;;;;5005868;28;20029;-70
2023/07/08 07:36:06;;;;;;;18.08;5.78;;;;;;;;;;5005778;28;20025;-70
2023/07/08 07:38:33;;;;;;;21.23;5.30;;;;;;;;;;5007656;28;20036;-70
2023/07/08 07:41:00;;;;;;;21.02;5.70;;;;;;;;;;5006633;28;20613;-70
2023/07/08 07:43:41;;;;;;;20.70;6.05;;;;;;;;;;5009995;28;20059;-70
2023/07/08 07:46:10;;;;;;;19.33;5.10;;;;;;;;;;5630789;23;20101;-67
2023/07/08 07:48:37;;;;;;;24.48;6.22;;;;;;;;;;5013064;28;20424;-67
2023/07/08 07:51:03;;;;;;;22.02;5.68;;;;;;;;;;5013451;28;20367;-66
2023/07/08 07:53:29;;;;;;;19.45;5.53;;;;;;;;;;5010780;28;20025;-65
2023/07/08 07:55:57;;;;;;;19.48;6.07;;;;;;;;;;5008540;28;20456;-65
2023/07/08 07:58:23;;;;;;;20.98;6.10;;;;;;;;;;5013839;28;20120;-65
2023/07/08 08:00:49;;;;;;;21.75;5.60;;;;;;;;;;5013629;28;20064;-65
2023/07/08 08:03:16;;;;;;;15.63;5.38;;;;;;;;;;5014096;28;20033;-65
2023/07/08 08:05:43;;;;;;;20.13;5.00;;;;;;;;;;5018639;28;20047;-66
2023/07/08 08:08:09;;;;;;;15.00;5.20;;;;;;;;;;5008967;28;20527;-65
2023/07/08 08:10:36;;;;;;;21.10;6.35;;;;;;;;;;5016515;28;20018;-65
2023/07/08 08:13:03;;;;;;;18.60;5.40;;;;;;;;;;5008360;28;20037;-65
2023/07/08 08:15:29;;;;;;;21.02;6.40;;;;;;;;;;5014397;28;20021;-65
2023/07/08 08:17:56;;;;;;;19.80;5.25;;;;;;;;;;5012243;28;20045;-65
2023/07/08 08:20:23;;;;;;;21.67;5.60;;;;;;;;;;5008752;28;20756;-66
2023/07/08 08:22:50;;;;;;;21.80;5.60;;;;;;;;;;5011063;28;20387;-65
2023/07/08 08:25:16;;;;;;;21.58;5.30;;;;;;;;;;5024953;28;20484;-66
2023/07/08 08:27:43;;;;;;;15.73;5.10;;;;;;;;;;5029521;28;20294;-66
2023/07/08 08:30:10;;;;;;;18.25;5.35;;;;;;;;;;5025423;28;20372;-67
2023/07/08 08:32:38;;;;;;;20.10;5.43;;;;;;;;;;5028144;28;20128;-67
2023/07/08 08:35:05;;;;;;;15.65;4.93;;;;;;;;;;5025236;28;20091;-67
2023/07/08 08:37:31;;;;;;;20.90;5.05;;;;;;;;;;5029480;28;20056;-67
2023/07/08 08:39:57;;;;;;;13.43;4.85;;;;;;;;;;5028081;28;20108;-65
2023/07/08 08:42:28;;;;;;;16.75;4.70;;;;;;;;;;5031323;28;20498;-67
2023/07/08 08:44:57;;;;;;;17.08;4.95;;;;;;;;;;5029857;28;20590;-67
2023/07/08 08:47:33;;;;;;;17.52;4.72;;;;;;;;;;5023518;28;20465;-66
2023/07/08 08:49:59;;;;;;;;;;;;;;;;;;5021511;28;20116;-67
2023/07/08 08:52:25;;;;;;;;;;;;;;;;;;5023698;28;20285;-67
2023/07/08 08:54:51;;;;;;;15.85;5.00;;;;;;;;;;5025571;28;20169;-66
2023/07/08 08:57:36;;;;;;;14.93;4.78;;;;;;;;;;5022999;28;20039;-66
2023/07/08 09:00:03;;;;;;;17.20;5.07;;;;;;;;;;5022950;28;20479;-66
2023/07/08 09:02:33;;;;;;;17.23;5.28;;;;;;;;;;5023552;28;20479;-67
2023/07/08 09:05:03;;;;;;;15.57;5.15;;;;;;;;;;5028792;28;20029;-66
2023/07/08 09:07:31;;;;;;;15.60;5.30;;;;;;;;;;5020599;28;20590;-66
2023/07/08 09:10:08;;;;;;;18.42;4.88;;;;;;;;;;5018769;28;20064;-66
2023/07/08 09:12:34;;;;;;;17.33;4.97;;;;;;;;;;5041169;28;20029;-67
2023/07/08 09:15:01;;;;;;;13.50;4.65;;;;;;;;;;5033831;28;20295;-66
2023/07/08 09:17:37;;;;;;;17.92;4.90;;;;;;;;;;5026272;28;20029;-66
2023/07/08 09:20:03;;;;;;;14.60;4.93;;;;;;;;;;5022497;28;20028;-66
2023/07/08 09:22:32;;;;;;;18.35;5.30;;;;;;;;;;5022228;28;20029;-66
2023/07/08 09:24:59;;;;;;;14.98;5.13;;;;;;;;;;5035916;28;20400;-65
2023/07/08 09:27:25;;;;;;;22.02;5.38;;;;;;;;;;5024427;28;20033;-66
2023/07/08 09:29:51;;;;;;;17.08;4.88;;;;;;;;;;5024236;28;20053;-66
2023/07/08 09:32:18;;;;;;;16.30;5.00;;;;;;;;;;5021939;28;20045;-66
2023/07/08 09:34:48;;;;;;;13.95;4.35;;;;;;;;;;5019989;28;21045;-66
2023/07/08 09:37:25;;;;;;;13.43;4.50;;;;;;;;;;5018313;28;20025;-65
2023/07/08 09:39:52;;;;;;;16.80;4.93;;;;;;;;;;5021343;28;20029;-66
2023/07/08 09:42:19;;;;;;;16.83;5.30;;;;;;;;;;5017781;28;20120;-66
2023/07/08 09:44:46;;;;;;;17.52;5.60;;;;;;;;;;5024075;28;20037;-66
2023/07/08 09:47:23;;;;;;;23.95;5.43;;;;;;;;;;5020321;28;20131;-66
2023/07/08 09:49:53;;;;;;;14.38;4.30;;;;;;;;;;5024431;28;20529;-66
2023/07/08 09:52:19;;;;;;;15.45;4.63;;;;;;;;;;5020221;28;20020;-66
2023/07/08 09:54:46;;;;;;;15.98;5.20;;;;;;;;;;5022096;28;20065;-66
2023/07/08 09:57:33;;;;;;;13.65;4.63;;;;;;;;;;5018272;28;20297;-66
2023/07/08 10:00:02;;;;;;;21.90;5.10;;;;;;;;;;5017375;28;20340;-66
2023/07/08 10:02:32;;;;;;;16.17;4.50;;;;;;;;;;5021999;28;20032;-66
2023/07/08 10:05:00;;;;;;;17.63;5.35;;;;;;;;;;5019170;28;20033;-66
2023/07/08 10:07:28;;;;;;;19.15;5.43;;;;;;;;;;5023359;28;20033;-66
2023/07/08 10:10:01;;;;;;;18.63;5.45;;;;;;;;;;5020246;28;20170;-66
2023/07/08 10:12:28;;;;;;;18.35;5.45;;;;;;;;;;5020792;28;20569;-66
2023/07/08 10:15:00;;;;;;;27.27;5.72;;;;;;;;;;5024193;28;20510;-66
2023/07/08 10:17:27;;;;;;;17.08;4.93;;;;;;;;;;5021781;28;20029;-66
2023/07/08 10:19:53;;;;;;;15.40;5.30;;;;;;;;;;5019972;28;20037;-66
2023/07/08 10:22:38;;;;;;;18.40;5.05;;;;;;;;;;5021257;28;20028;-66
2023/07/08 10:25:23;;;;;;;20.52;5.57;;;;;;;;;;5020647;28;20063;-66
2023/07/08 10:27:52;;;;;;;21.58;5.07;;;;;;;;;;5038665;28;20033;-67
2023/07/08 10:30:23;;;;;;;15.25;5.13;;;;;;;;;;5022249;28;20148;-66
2023/07/08 10:32:52;;;;;;;18.63;5.90;;;;;;;;;;5039069;28;20021;-66
2023/07/08 10:35:28;;;;;;;19.85;5.47;;;;;;;;;;5020507;28;20036;-66
2023/07/08 10:37:57;;;;;;;22.15;5.97;;;;;;;;;;5026053;28;20060;-67
2023/07/08 10:40:38;;;;;;;20.65;5.18;;;;;;;;;;5023547;28;20029;-67
2023/07/08 10:43:13;;;;;;;16.40;5.38;;;;;;;;;;5019919;28;20029;-67
2023/07/08 10:45:39;;;;;;;;;;;;;;;;;;5024442;28;20033;-67
2023/07/08 10:48:24;;;;;;;18.10;5.45;;;;;;;;;;5018808;28;19955;-67
2023/07/08 10:50:56;;;;;;;17.85;4.97;;;;;;;;;;5025203;28;20037;-67
2023/07/08 10:53:41;;;;;;;18.23;4.97;;;;;;;;;;5024084;28;20024;-65
2023/07/08 10:56:19;;;;;;;17.10;5.10;;;;;;;;;;5018271;28;20033;-66
2023/07/08 10:59:04;;;;;;;13.98;4.93;;;;;;;;;;5022364;28;20491;-66
2023/07/08 11:01:36;;;;;;;20.08;5.45;;;;;;;;;;5021076;28;20098;-67
2023/07/08 11:04:22;;;;;;;16.00;5.10;;;;;;;;;;5017653;28;20762;-67
2023/07/08 11:06:51;;;;;;;13.13;4.72;;;;;;;;;;4994117;28;20044;-67
2023/07/08 11:09:26;;;;;;;15.13;4.57;;;;;;;;;;5012484;28;20022;-67
2023/07/08 11:12:05;;;;;;;18.92;5.03;;;;;;;;;;5024130;28;20040;-67
2023/07/08 11:14:40;;;;;;;18.30;5.75;;;;;;;;;;5025637;28;20040;-64
2023/07/08 11:17:16;;;;;;;18.25;6.18;;;;;;;;;;5018303;28;20028;-66
2023/07/08 11:19:46;;;;;;;20.92;5.38;;;;;;;;;;5019698;28;20484;-66
2023/07/08 11:22:14;;;;;;;20.95;5.07;;;;;;;;;;5023835;28;20041;-66
2023/07/08 11:24:46;;;;;;;17.67;4.95;;;;;;;;;;5026356;28;20394;-66
2023/07/08 11:27:19;;;;;;;18.58;5.25;;;;;;;;;;5017835;28;20375;-67
2023/07/08 11:29:59;;;;;;;15.80;5.07;;;;;;;;;;5027637;28;20017;-66
2023/07/08 11:32:27;;;;;;;18.50;5.30;;;;;;;;;;5022184;28;20033;-67
2023/07/08 11:34:55;;;;;;;13.40;5.05;;;;;;;;;;5027450;28;20306;-67
2023/07/08 11:37:22;;;;;;;18.70;5.60;;;;;;;;;;5041419;28;20585;-67
2023/07/08 11:39:56;;;;;;;14.95;4.90;;;;;;;;;;5024786;28;20017;-67
2023/07/08 11:42:28;;;;;;;21.15;6.10;;;;;;;;;;5025678;28;20041;-67
2023/07/08 11:44:56;;;;;;;15.60;6.35;;;;;;;;;;5026289;28;21009;-67
2023/07/08 11:47:26;;;;;;;14.73;5.18;;;;;;;;;;5026429;28;20223;-66
2023/07/08 11:49:55;;;;;;;16.92;5.32;;;;;;;;;;5025424;28;20566;-67
2023/07/08 11:52:23;;;;;;;18.80;5.82;;;;;;;;;;5025423;28;20442;-67
2023/07/08 11:54:59;;;;;;;17.00;5.10;;;;;;;;;;5025494;28;20029;-67
2023/07/08 11:57:28;;;;;;;18.13;5.40;;;;;;;;;;5023229;28;20056;-67
2023/07/08 12:00:15;;;;;;;16.60;5.47;;;;;;;;;;5024566;28;20057;-67
2023/07/08 12:03:08;;;;;;;14.40;4.97;;;;;;;;;;5024335;28;20033;-67
2023/07/08 12:05:34;;;;;;;18.15;5.43;;;;;;;;;;5022965;28;20377;-67
2023/07/08 12:08:01;;;;;;;15.88;5.55;;;;;;;;;;5020434;28;20195;-67
2023/07/08 12:11:00;;;;;;;14.27;5.35;;;;;;;;;;5019636;28;20339;-67
2023/07/08 12:13:27;;;;;;;13.95;4.82;;;;;;;;;;4999751;28;20522;-67
2023/07/08 12:15:53;;;;;;;16.00;5.30;;;;;;;;;;5024508;28;20037;-67
2023/07/08 12:18:24;;;;;;;16.38;5.75;;;;;;;;;;5025371;28;20116;-69
2023/07/08 12:20:59;;;;;;;16.27;5.35;;;;;;;;;;5025372;28;20045;-68
2023/07/08 12:23:26;;;;;;;15.10;5.40;;;;;;;;;;5038258;28;20090;-68
2023/07/08 12:25:53;;;;;;;17.33;5.28;;;;;;;;;;5026461;28;20025;-67
2023/07/08 12:28:20;;;;;;;17.98;5.28;;;;;;;;;;5020524;28;20049;-68
2023/07/08 12:30:47;;;;;;;15.15;5.32;;;;;;;;;;5025207;28;20531;-68
2023/07/08 12:33:27;;;;;;;17.42;5.60;;;;;;;;;;5018647;28;20025;-68
2023/07/08 12:35:53;;;;;;;17.45;5.28;;;;;;;;;;5023847;28;20071;-68
2023/07/08 12:38:19;;;;;;;18.88;5.72;;;;;;;;;;5019764;28;20115;-67
2023/07/08 12:40:45;;;;;;;17.13;4.93;;;;;;;;;;5037679;28;20372;-67
2023/07/08 12:43:12;;;;;;;19.83;5.68;;;;;;;;;;5017969;28;20489;-67
2023/07/08 12:45:39;;;;;;;16.40;5.80;;;;;;;;;;5024786;28;20037;-67
2023/07/08 12:48:05;;;;;;;15.57;5.35;;;;;;;;;;5016245;28;20052;-67
2023/07/08 12:50:32;;;;;;;13.70;4.40;;;;;;;;;;5025638;28;20031;-68
2023/07/08 12:52:58;;;;;;;14.60;5.53;;;;;;;;;;5018068;28;20478;-68
2023/07/08 12:55:25;;;;;;;15.70;4.72;;;;;;;;;;5024265;28;20044;-68
2023/07/08 12:57:52;;;;;;;16.20;5.60;;;;;;;;;;5027315;28;20032;-68
2023/07/08 13:00:24;;;;;;;14.27;4.97;;;;;;;;;;5020261;28;20024;-67
2023/07/08 13:02:56;;;;;;;15.88;5.32;;;;;;;;;;5026661;28;20025;-68
2023/07/08 13:05:22;;;;;;;15.15;5.25;;;;;;;;;;5024663;28;20539;-68
2023/07/08 13:07:49;;;;;;;14.43;4.95;;;;;;;;;;5026904;28;20060;-68
2023/07/08 13:10:22;;;;;;;16.95;5.45;;;;;;;;;;5019732;28;21495;-67
2023/07/08 13:12:51;;;;;;;17.42;6.13;;;;;;;;;;5024310;28;20025;-67
2023/07/08 13:15:21;;;;;;;15.32;5.40;;;;;;;;;;5018858;28;20071;-65
2023/07/08 13:17:47;;;;;;;18.75;5.47;;;;;;;;;;5023982;28;20036;-67
2023/07/08 13:20:17;;;;;;;19.38;5.07;;;;;;;;;;5021806;28;20033;-67
2023/07/08 13:22:47;;;;;;;16.48;5.60;;;;;;;;;;5024445;28;20080;-68
2023/07/08 13:25:17;;;;;;;16.70;5.13;;;;;;;;;;5019000;28;20037;-68
2023/07/08 13:27:55;;;;;;;15.00;4.90;;;;;;;;;;5026609;28;20047;-68
2023/07/08 13:30:22;;;;;;;16.98;5.28;;;;;;;;;;5021376;28;20036;-66
2023/07/08 13:32:55;;;;;;;17.33;5.57;;;;;;;;;;5024177;28;20029;-68
2023/07/08 13:35:23;;;;;;;17.10;5.28;;;;;;;;;;5021196;28;20036;-68
2023/07/08 13:37:50;;;;;;;15.98;5.35;;;;;;;;;;5022927;28;20032;-67
2023/07/08 13:40:17;;;;;;;21.30;5.68;;;;;;;;;;5018485;28;20632;-67
2023/07/08 13:42:50;;;;;;;17.02;5.60;;;;;;;;;;5022075;28;20122;-67
2023/07/08 13:45:18;;;;;;;16.03;5.10;;;;;;;;;;5018918;28;20710;-67
2023/07/08 13:47:44;;;;;;;13.95;5.15;;;;;;;;;;5019531;28;20341;-66
2023/07/08 13:50:21;;;;;;;19.52;4.97;;;;;;;;;;5017649;28;20140;-67
2023/07/08 13:52:47;;;;;;;19.23;5.25;;;;;;;;;;5021142;28;20039;-66
2023/07/08 13:55:18;;;;;;;16.23;5.50;;;;;;;;;;5019405;28;20986;-67
2023/07/08 13:57:45;;;;;;;17.77;5.97;;;;;;;;;;5017335;28;20032;-67
2023/07/08 14:00:11;;;;;;;16.67;5.88;;;;;;;;;;5033496;28;20259;-67
2023/07/08 14:02:39;;;;;;;15.18;5.10;;;;;;;;;;5020239;28;20035;-67
2023/07/08 14:05:06;;;;;;;15.27;5.25;;;;;;;;;;5019690;28;20652;-66
2023/07/08 14:07:33;;;;;;;17.15;5.40;;;;;;;;;;5020161;28;20025;-67
2023/07/08 14:09:59;;;;;;;16.05;5.78;;;;;;;;;;5018123;28;20114;-66
2023/07/08 14:12:26;;;;;;;16.45;5.53;;;;;;;;;;5021352;28;20037;-66
2023/07/08 14:14:52;;;;;;;15.57;5.20;;;;;;;;;;5007143;28;20047;-66
2023/07/08 14:17:23;;;;;;;17.77;5.47;;;;;;;;;;5016136;28;20033;-65
2023/07/08 14:19:50;;;;;;;17.70;5.32;;;;;;;;;;5018977;28;20037;-66
2023/07/08 14:22:24;;;;;;;16.75;5.97;;;;;;;;;;5016248;28;20041;-65
2023/07/08 14:24:50;;;;;;;;;;;;;;;;;;5019335;28;20091;-66
2023/07/08 14:27:17;;;;;;;16.73;5.53;;;;;;;;;;5019316;28;20277;-66
2023/07/08 14:29:45;;;;;;;17.33;5.45;;;;;;;;;;5021638;28;20395;-66
2023/07/08 14:32:15;;;;;;;17.42;6.18;;;;;;;;;;5017770;28;20130;-68
2023/07/08 14:34:42;;;;;;;14.68;4.93;;;;;;;;;;5021030;28;20298;-66
2023/07/08 14:37:16;;;;;;;18.13;5.97;;;;;;;;;;5019304;28;20025;-66